Time;durP1;ratioP1;P1;durP2;ratioP2;P2;SDS_P1;SDS_P2;PMS_P1;PMS_P2;Temp;Humidity;BMP_temperature;BMP_pressure;BME280_temperature;BME280_humidity;BME280_pressure;Samples;Min_cycle;Max_cycle;Signal;HPM_P1;HPM_P2
2022/09/07 00:02:00;;;;;;;2.67;2.20;;;;;;;17.49;nan;-24304.38;5037952;28;20236;-62
2022/09/07 00:04:25;;;;;;;2.80;1.88;;;;;;;17.57;nan;-24306.47;5039757;28;20218;-61
2022/09/07 00:06:51;;;;;;;2.25;2.00;;;;;;;17.64;nan;-24308.44;5038440;28;20234;-62
2022/09/07 00:09:16;;;;;;;2.70;2.08;;;;;;;17.56;nan;-24306.19;5038742;28;20187;-61
2022/09/07 00:11:42;;;;;;;2.47;1.88;;;;;;;17.50;nan;-24304.66;5037933;28;20555;-62
2022/09/07 00:14:08;;;;;;;2.63;1.90;;;;;;;17.48;nan;-24304.09;5039069;28;20179;-62
2022/09/07 00:16:34;;;;;;;2.53;1.65;;;;;;;17.00;nan;-24290.72;5038031;28;20676;-62
2022/09/07 00:19:02;;;;;;;2.58;1.90;;;;;;;17.12;nan;-24294.06;5037731;28;20187;-61
2022/09/07 00:21:27;;;;;;;2.28;2.05;;;;;;;17.35;nan;-24300.34;5039489;28;20798;-61
2022/09/07 00:23:53;;;;;;;2.35;2.00;;;;;;;17.34;nan;-24300.19;5037733;28;20211;-61
2022/09/07 00:26:23;;;;;;;2.00;1.77;;;;;;;16.93;nan;-24288.88;5039012;28;20195;-62
2022/09/07 00:28:49;;;;;;;3.15;1.90;;;;;;;17.28;nan;-24298.53;5037097;28;20665;-62
2022/09/07 00:31:20;;;;;;;5.88;2.15;;;;;;;16.96;nan;-24289.59;5043527;28;20293;-62
2022/09/07 00:33:47;;;;;;;2.70;1.90;;;;;;;16.50;nan;-24277.00;5033655;28;20646;-62
2022/09/07 00:36:14;;;;;;;2.00;1.80;;;;;;;17.03;nan;-24291.69;5038118;28;20206;-62
2022/09/07 00:38:39;;;;;;;2.22;1.98;;;;;;;17.07;nan;-24292.66;5037373;28;20178;-61
2022/09/07 00:41:06;;;;;;;3.83;2.03;;;;;;;16.86;nan;-24286.94;5038026;28;20409;-62
2022/09/07 00:43:40;;;;;;;3.60;2.10;;;;;;;16.69;nan;-24282.19;5038265;28;20210;-62
2022/09/07 00:46:11;;;;;;;2.60;2.00;;;;;;;16.84;nan;-24286.22;5037994;28;20180;-61
2022/09/07 00:48:37;;;;;;;2.38;1.88;;;;;;;16.91;nan;-24288.34;5037420;28;20184;-62
2022/09/07 00:51:08;;;;;;;2.72;2.10;;;;;;;16.62;nan;-24280.22;5039880;28;21950;-62
2022/09/07 00:53:41;;;;;;;2.72;1.80;;;;;;;16.49;nan;-24276.59;5038537;28;20240;-62
2022/09/07 00:56:08;;;;;;;2.17;1.90;;;;;;;16.95;nan;-24289.44;5037435;28;20186;-62
2022/09/07 00:58:38;;;;;;;3.05;2.60;;;;;;;16.90;nan;-24287.91;5037236;28;20273;-61
2022/09/07 01:01:03;;;;;;;2.78;1.80;;;;;;;16.78;nan;-24284.84;5037291;28;20180;-62
2022/09/07 01:03:35;;;;;;;2.63;1.90;;;;;;;16.54;nan;-24278.00;5037836;28;20202;-61
2022/09/07 01:06:38;;;;;;;6.07;2.15;;;;;;;16.78;nan;-24284.84;5038441;28;20182;-61
2022/09/07 01:09:16;;;;;;;2.33;1.90;;;;;;;16.73;nan;-24283.44;5036604;28;20354;-61
2022/09/07 01:11:44;;;;;;;3.33;2.13;;;;;;;16.74;nan;-24283.72;5033055;28;20179;-62
2022/09/07 01:14:14;;;;;;;4.30;2.30;;;;;;;16.50;nan;-24277.00;5038419;28;20182;-61
2022/09/07 01:17:10;;;;;;;2.72;1.63;;;;;;;16.76;nan;-24284.28;5041009;28;20202;-61
2022/09/07 01:19:59;;;;;;;3.10;2.05;;;;;;;16.74;nan;-24283.59;5039548;28;20232;-60
2022/09/07 01:22:52;;;;;;;2.50;2.15;;;;;;;16.70;nan;-24282.59;5039949;28;20185;-62
2022/09/07 01:25:49;;;;;;;3.00;2.15;;;;;;;16.63;nan;-24280.66;5036665;28;20536;-60
2022/09/07 01:28:34;;;;;;;2.63;2.20;;;;;;;16.62;nan;-24280.38;5041196;28;20270;-62
2022/09/07 01:31:21;;;;;;;2.67;1.95;;;;;;;16.54;nan;-24278.00;5036516;28;20222;-62
2022/09/07 01:34:04;;;;;;;2.90;2.00;;;;;;;16.62;nan;-24280.22;5032754;28;20630;-61
2022/09/07 01:36:36;;;;;;;2.38;1.80;;;;;;;16.60;nan;-24279.66;5037818;28;20654;-62
2022/09/07 01:39:04;;;;;;;2.80;2.28;;;;;;;16.57;nan;-24278.97;5038438;28;20262;-61
2022/09/07 01:41:29;;;;;;;3.30;2.33;;;;;;;16.60;nan;-24279.66;5043910;28;20183;-61
2022/09/07 01:44:24;;;;;;;2.97;2.00;;;;;;;16.59;nan;-24279.53;5037717;28;20211;-61
2022/09/07 01:46:53;;;;;;;2.35;1.90;;;;;;;16.54;nan;-24278.00;5032697;28;20265;-62
2022/09/07 01:49:21;;;;;;;2.60;1.98;;;;;;;16.26;nan;-24270.44;5038282;28;20260;-62
2022/09/07 01:51:54;;;;;;;3.25;2.40;;;;;;;16.22;nan;-24269.19;5035324;28;20183;-61
2022/09/07 01:54:39;;;;;;;3.42;2.22;;;;;;;16.09;nan;-24265.56;5038205;28;20178;-62
2022/09/07 01:57:12;;;;;;;2.10;1.90;;;;;;;16.10;nan;-24265.81;5036445;28;20179;-62
2022/09/07 01:59:49;;;;;;;3.42;1.95;;;;;;;16.08;nan;-24265.28;5036348;28;20185;-62
2022/09/07 02:02:20;;;;;;;4.60;2.38;;;;;;;16.42;nan;-24274.78;5039983;28;20174;-61
2022/09/07 02:04:50;;;;;;;4.38;2.28;;;;;;;16.44;nan;-24275.19;5035688;28;20234;-61
2022/09/07 02:07:23;;;;;;;3.55;2.30;;;;;;;16.02;nan;-24263.59;5039943;28;20681;-62
2022/09/07 02:10:05;;;;;;;2.30;1.80;;;;;;;16.25;nan;-24270.03;5035844;28;20210;-62
2022/09/07 02:12:48;;;;;;;2.75;2.45;;;;;;;16.22;nan;-24269.31;5036956;28;20190;-62
2022/09/07 02:15:21;;;;;;;4.72;2.40;;;;;;;16.23;nan;-24269.47;5038004;28;20266;-63
2022/09/07 02:17:57;;;;;;;2.95;2.20;;;;;;;15.83;nan;-24258.56;5035003;28;20183;-63
2022/09/07 02:20:30;;;;;;;2.90;2.33;;;;;;;16.02;nan;-24263.59;5040242;28;20226;-62
2022/09/07 02:23:03;;;;;;;4.63;2.70;;;;;;;16.01;nan;-24263.44;5035704;28;20290;-62
2022/09/07 02:25:36;;;;;;;4.50;2.13;;;;;;;15.65;nan;-24253.38;5037727;28;20193;-62
2022/09/07 02:28:11;;;;;;;3.03;1.90;;;;;;;15.59;nan;-24251.69;5035448;28;20189;-62
2022/09/07 02:30:37;;;;;;;2.47;2.17;;;;;;;15.47;nan;-24248.47;5036962;28;20193;-61
2022/09/07 02:33:03;;;;;;;3.67;2.60;;;;;;;15.82;nan;-24258.13;5037986;28;20684;-61
2022/09/07 02:35:28;;;;;;;4.53;2.78;;;;;;;15.39;nan;-24246.22;5037061;28;20191;-62
2022/09/07 02:37:55;;;;;;;2.75;2.30;;;;;;;15.20;nan;-24240.91;5035508;28;20282;-62
2022/09/07 02:40:21;;;;;;;2.60;2.25;;;;;;;15.28;nan;-24243.28;5037112;28;20187;-61
2022/09/07 02:42:47;;;;;;;5.28;2.15;;;;;;;15.20;nan;-24241.06;5037342;28;20214;-62
2022/09/07 02:45:14;;;;;;;2.33;2.08;;;;;;;15.45;nan;-24248.06;5037458;28;20180;-61
2022/09/07 02:48:02;;;;;;;2.03;1.83;;;;;;;15.30;nan;-24243.84;5031500;28;20171;-61
2022/09/07 02:50:45;;;;;;;2.80;2.28;;;;;;;15.61;nan;-24252.41;5040687;28;20191;-62
2022/09/07 02:53:10;;;;;;;2.97;2.17;;;;;;;15.58;nan;-24251.56;5038257;28;20186;-62
2022/09/07 02:55:38;;;;;;;3.40;2.38;;;;;;;15.54;nan;-24250.31;5041169;28;20183;-62
2022/09/07 02:58:20;;;;;;;8.02;2.70;;;;;;;15.46;nan;-24248.19;5044891;28;20590;-62
2022/09/07 03:00:57;;;;;;;3.35;2.35;;;;;;;15.39;nan;-24246.38;5042006;28;20190;-61
2022/09/07 03:03:45;;;;;;;6.15;2.55;;;;;;;15.47;nan;-24248.47;5035398;28;20209;-62
2022/09/07 03:06:37;;;;;;;7.00;2.78;;;;;;;14.98;nan;-24235.03;5040721;28;20208;-62
2022/09/07 03:09:08;;;;;;;4.18;2.35;;;;;;;15.41;nan;-24246.94;5038553;28;20601;-62
2022/09/07 03:11:38;;;;;;;3.95;2.70;;;;;;;15.12;nan;-24238.81;5039641;28;20684;-62
2022/09/07 03:14:18;;;;;;;5.90;2.80;;;;;;;15.31;nan;-24244.13;5039618;28;20245;-62
2022/09/07 03:16:49;;;;;;;5.25;3.10;;;;;;;14.97;nan;-24234.75;5035367;28;20183;-61
2022/09/07 03:19:14;;;;;;;5.70;3.10;;;;;;;15.02;nan;-24236.16;5043320;28;20213;-61
2022/09/07 03:21:40;;;;;;;8.63;2.83;;;;;;;14.74;nan;-24228.31;5038184;28;20186;-61
2022/09/07 03:24:06;;;;;;;5.72;3.35;;;;;;;14.73;nan;-24228.03;5036058;28;20592;-61
2022/09/07 03:26:31;;;;;;;4.22;3.00;;;;;;;14.74;nan;-24228.16;5051139;28;20190;-62
2022/09/07 03:28:57;;;;;;;4.38;2.97;;;;;;;15.00;nan;-24235.44;5037034;28;20760;-62
2022/09/07 03:31:22;;;;;;;5.25;3.30;;;;;;;14.82;nan;-24230.41;5036490;28;20611;-61
2022/09/07 03:33:48;;;;;;;5.38;3.20;;;;;;;14.55;nan;-24222.97;5035680;28;20183;-61
2022/09/07 03:36:13;;;;;;;4.45;3.40;;;;;;;14.87;nan;-24231.94;5036312;28;20198;-62
2022/09/07 03:38:39;;;;;;;7.28;3.30;;;;;;;14.51;nan;-24221.84;5036004;28;20187;-61
2022/09/07 03:41:05;;;;;;;5.03;3.03;;;;;;;14.90;nan;-24232.78;5035963;28;20205;-65
2022/09/07 03:43:32;;;;;;;4.38;3.00;;;;;;;14.82;nan;-24230.41;5035774;28;20727;-64
2022/09/07 03:46:03;;;;;;;4.60;2.83;;;;;;;14.61;nan;-24224.66;5036506;28;20694;-64
2022/09/07 03:48:31;;;;;;;4.35;2.78;;;;;;;14.21;nan;-24213.56;5035531;28;20669;-64
2022/09/07 03:50:58;;;;;;;4.50;3.08;;;;;;;14.51;nan;-24222.00;5035378;28;20273;-63
2022/09/07 03:53:24;;;;;;;9.48;3.70;;;;;;;14.31;nan;-24216.38;5037190;28;20685;-64
2022/09/07 03:56:04;;;;;;;4.93;3.13;;;;;;;14.08;nan;-24210.06;5034688;28;20219;-64
2022/09/07 03:58:31;;;;;;;4.10;2.90;;;;;;;14.70;nan;-24227.19;5039601;28;20179;-62
2022/09/07 04:00:58;;;;;;;5.43;3.40;;;;;;;14.68;nan;-24226.47;5036412;28;20179;-63
2022/09/07 04:03:24;;;;;;;7.97;3.70;;;;;;;14.84;nan;-24231.09;5038854;28;20195;-62
2022/09/07 04:05:49;;;;;;;5.43;3.53;;;;;;;14.87;nan;-24231.94;5038305;28;20568;-62
2022/09/07 04:08:15;;;;;;;3.75;2.97;;;;;;;14.70;nan;-24227.19;5038517;28;20626;-62
2022/09/07 04:10:41;;;;;;;4.90;3.08;;;;;;;14.53;nan;-24222.56;5039375;28;20183;-63
2022/09/07 04:13:07;;;;;;;5.72;2.88;;;;;;;14.44;nan;-24219.88;5038547;28;20274;-64
2022/09/07 04:15:33;;;;;;;4.18;3.13;;;;;;;14.37;nan;-24217.94;5039877;28;20250;-63
2022/09/07 04:17:59;;;;;;;4.85;3.10;;;;;;;14.47;nan;-24220.88;5037982;28;20185;-65
2022/09/07 04:20:25;;;;;;;8.80;3.30;;;;;;;14.78;nan;-24229.41;5038947;28;20226;-62
2022/09/07 04:22:50;;;;;;;4.85;3.35;;;;;;;14.99;nan;-24235.31;5039699;28;20203;-63
2022/09/07 04:25:16;;;;;;;4.95;3.72;;;;;;;14.97;nan;-24234.75;5035899;28;20183;-63
2022/09/07 04:27:42;;;;;;;5.32;4.00;;;;;;;14.88;nan;-24232.22;5038756;28;20633;-63
2022/09/07 04:30:08;;;;;;;4.85;3.40;;;;;;;14.99;nan;-24235.31;5038636;28;20292;-63
2022/09/07 04:32:34;;;;;;;9.93;4.20;;;;;;;14.82;nan;-24230.41;5038027;28;20182;-63
2022/09/07 04:34:59;;;;;;;6.40;3.65;;;;;;;14.96;nan;-24234.31;5037526;28;20182;-65
2022/09/07 04:37:24;;;;;;;7.15;3.40;;;;;;;15.31;nan;-24244.13;5039573;28;20332;-63
2022/09/07 04:39:50;;;;;;;6.50;3.75;;;;;;;15.57;nan;-24251.28;5034933;28;20576;-62
2022/09/07 04:42:17;;;;;;;6.50;3.40;;;;;;;15.42;nan;-24247.22;5037327;28;20202;-62
2022/09/07 04:44:42;;;;;;;4.88;3.15;;;;;;;15.51;nan;-24249.47;5038883;28;20206;-63
2022/09/07 04:47:07;;;;;;;8.52;3.65;;;;;;;15.55;nan;-24250.72;5037066;28;20186;-63
2022/09/07 04:49:33;;;;;;;4.45;2.92;;;;;;;15.90;nan;-24260.50;5038977;28;20265;-64
2022/09/07 04:51:59;;;;;;;5.03;3.38;;;;;;;15.60;nan;-24252.13;5041401;28;20187;-63
2022/09/07 04:54:25;;;;;;;5.80;3.50;;;;;;;16.05;nan;-24264.44;5032618;28;20258;-62
2022/09/07 04:56:51;;;;;;;6.47;3.30;;;;;;;16.16;nan;-24267.50;5046281;28;20189;-64
2022/09/07 04:59:16;;;;;;;5.90;3.30;;;;;;;16.22;nan;-24269.19;5015088;28;20172;-63
2022/09/07 05:01:42;;;;;;;6.10;3.28;;;;;;;16.23;nan;-24269.47;5039411;28;20186;-63
2022/09/07 05:04:07;;;;;;;4.82;3.35;;;;;;;15.95;nan;-24261.78;5045920;28;20209;-64
2022/09/07 05:06:33;;;;;;;5.80;2.95;;;;;;;16.32;nan;-24271.97;5036240;28;20244;-64
2022/09/07 05:08:58;;;;;;;4.13;3.08;;;;;;;16.40;nan;-24274.22;5038875;28;20183;-64
2022/09/07 05:11:24;;;;;;;9.73;3.53;;;;;;;16.71;nan;-24282.88;5038899;28;20626;-64
2022/09/07 05:13:50;;;;;;;5.10;3.00;;;;;;;16.40;nan;-24274.22;5040715;28;20183;-64
2022/09/07 05:16:22;;;;;;;6.65;3.60;;;;;;;16.52;nan;-24277.44;5036753;28;20187;-64
2022/09/07 05:18:53;;;;;;;5.07;2.60;;;;;;;16.68;nan;-24281.91;5043526;28;20179;-64
2022/09/07 05:21:25;;;;;;;3.83;2.80;;;;;;;16.98;nan;-24290.16;5038436;28;20234;-64
2022/09/07 05:23:52;;;;;;;6.07;3.10;;;;;;;17.51;nan;-24304.94;5048030;28;20294;-64
2022/09/07 05:26:20;;;;;;;7.65;3.80;;;;;;;17.42;nan;-24302.28;5014596;28;20217;-64
2022/09/07 05:28:45;;;;;;;5.57;3.50;;;;;;;17.66;nan;-24309.13;5042439;28;20269;-63
2022/09/07 05:31:14;;;;;;;5.45;2.90;;;;;;;17.71;nan;-24310.38;5036968;28;20686;-64
2022/09/07 05:33:43;;;;;;;4.03;3.13;;;;;;;18.01;nan;-24318.75;5036603;28;20174;-64
2022/09/07 05:36:09;;;;;;;7.43;3.83;;;;;;;18.19;nan;-24323.63;5040500;28;20191;-64
2022/09/07 05:38:35;;;;;;;10.75;3.40;;;;;;;17.91;nan;-24315.81;5041763;28;20183;-66
2022/09/07 05:41:09;;;;;;;4.75;2.85;;;;;;;17.99;nan;-24318.19;5031470;28;20190;-64
2022/09/07 05:43:34;;;;;;;4.82;3.03;;;;;;;18.49;nan;-24332.00;5034670;28;20524;-64
2022/09/07 05:46:00;;;;;;;5.75;3.40;;;;;;;18.57;nan;-24333.94;5043468;28;20191;-63
2022/09/07 05:48:26;;;;;;;6.05;3.63;;;;;;;18.74;nan;-24338.69;5034941;28;20167;-63
2022/09/07 05:50:52;;;;;;;5.47;3.22;;;;;;;18.42;nan;-24330.03;5030460;28;20180;-63
2022/09/07 05:53:20;;;;;;;5.57;3.15;;;;;;;18.57;nan;-24334.09;5030613;28;20187;-66
2022/09/07 05:55:49;;;;;;;5.63;3.55;;;;;;;18.68;nan;-24337.00;4417244;28;21358;-67
2022/09/07 05:58:15;;;;;;;5.07;3.50;;;;;;;18.70;nan;-24337.72;4745508;28;20190;-66
2022/09/07 06:00:41;;;;;;;6.10;3.25;;;;;;;19.10;nan;-24348.56;5035758;28;20183;-65
2022/09/07 06:03:06;;;;;;;4.07;2.55;;;;;;;19.14;nan;-24349.69;5042212;28;20206;-66
2022/09/07 06:05:32;;;;;;;7.07;3.50;;;;;;;19.40;nan;-24357.06;5031564;28;20172;-63
2022/09/07 06:07:57;;;;;;;8.63;3.22;;;;;;;19.51;nan;-24359.97;5031230;28;20175;-64
2022/09/07 06:10:24;;;;;;;4.03;2.72;;;;;;;19.53;nan;-24360.53;5031454;28;20183;-63
2022/09/07 06:12:50;;;;;;;4.47;2.50;;;;;;;19.93;nan;-24371.50;5039984;28;20179;-65
2022/09/07 06:15:15;;;;;;;4.00;2.85;;;;;;;20.07;nan;-24375.25;5033837;28;20186;-65
2022/09/07 06:17:41;;;;;;;3.92;2.85;;;;;;;19.81;nan;-24368.31;5031114;28;20189;-65
2022/09/07 06:20:07;;;;;;;4.47;2.38;;;;;;;19.88;nan;-24369.97;5030675;28;20229;-64
2022/09/07 06:22:36;;;;;;;3.45;2.70;;;;;;;20.25;nan;-24380.41;5031329;28;20285;-64
2022/09/07 06:25:03;;;;;;;3.33;2.20;;;;;;;20.47;nan;-24386.25;5033600;28;20183;-65
2022/09/07 06:27:28;;;;;;;3.00;2.40;;;;;;;20.72;nan;-24393.19;5035029;28;20175;-64
2022/09/07 06:29:54;;;;;;;2.97;2.25;;;;;;;20.44;nan;-24385.53;5035328;28;20197;-65
2022/09/07 06:32:20;;;;;;;6.03;2.95;;;;;;;20.51;nan;-24387.34;5035391;28;20660;-65
2022/09/07 06:34:45;;;;;;;3.67;2.40;;;;;;;20.02;nan;-24374.00;5035419;28;20175;-65
2022/09/07 06:37:11;;;;;;;4.20;2.72;;;;;;;20.37;nan;-24383.47;5037789;28;20188;-65
2022/09/07 06:39:36;;;;;;;2.58;2.05;;;;;;;20.58;nan;-24389.28;5043303;28;20190;-65
2022/09/07 06:42:03;;;;;;;3.30;2.10;;;;;;;20.62;nan;-24390.53;5034858;28;20179;-65
2022/09/07 06:44:29;;;;;;;3.88;2.13;;;;;;;20.57;nan;-24389.00;5034904;28;20230;-65
2022/09/07 06:46:54;;;;;;;3.22;2.38;;;;;;;21.09;nan;-24403.44;5035133;28;20646;-65
2022/09/07 06:49:20;;;;;;;3.65;2.42;;;;;;;21.20;nan;-24406.34;5034980;28;20183;-65
2022/09/07 06:51:45;;;;;;;4.75;2.30;;;;;;;21.13;nan;-24404.56;5032919;28;20175;-65
2022/09/07 06:54:11;;;;;;;2.80;2.28;;;;;;;21.08;nan;-24403.03;5034844;28;20655;-66
2022/09/07 06:56:36;;;;;;;2.65;2.20;;;;;;;21.11;nan;-24404.00;5048540;28;20235;-65
2022/09/07 06:59:01;;;;;;;3.22;2.13;;;;;;;20.95;nan;-24399.56;5034469;28;20267;-65
2022/09/07 07:01:28;;;;;;;3.20;2.00;;;;;;;21.03;nan;-24401.63;5033864;28;20167;-65
2022/09/07 07:03:54;;;;;;;4.45;2.20;;;;;;;21.49;nan;-24414.41;5032772;28;20692;-65
2022/09/07 07:06:19;;;;;;;2.95;1.90;;;;;;;21.59;nan;-24417.03;5033723;28;20190;-65
2022/09/07 07:08:46;;;;;;;2.55;2.08;;;;;;;21.66;nan;-24418.97;5034107;28;20175;-65
2022/09/07 07:11:13;;;;;;;6.03;3.05;;;;;;;21.41;nan;-24412.19;5033553;28;20254;-65
2022/09/07 07:13:41;;;;;;;3.28;2.42;;;;;;;21.71;nan;-24420.34;5033948;28;20182;-65
2022/09/07 07:16:09;;;;;;;2.45;2.10;;;;;;;21.58;nan;-24416.75;5032876;28;20728;-66
2022/09/07 07:18:34;;;;;;;2.70;2.00;;;;;;;22.00;nan;-24428.38;5034286;28;20265;-66
2022/09/07 07:21:04;;;;;;;3.30;2.10;;;;;;;21.75;nan;-24421.31;5033722;28;20311;-65
2022/09/07 07:23:31;;;;;;;3.42;2.38;;;;;;;22.15;nan;-24432.41;5034054;28;20253;-66
2022/09/07 07:26:09;;;;;;;4.05;2.30;;;;;;;22.15;nan;-24432.41;5033787;28;20265;-65
2022/09/07 07:28:34;;;;;;;2.33;2.03;;;;;;;22.26;nan;-24435.44;5034153;28;20217;-65
2022/09/07 07:31:02;;;;;;;3.17;2.40;;;;;;;22.28;nan;-24435.88;5034209;28;20179;-66
2022/09/07 07:33:30;;;;;;;6.05;2.70;;;;;;;22.26;nan;-24435.44;5034288;28;20182;-65
2022/09/07 07:36:11;;;;;;;2.20;2.00;;;;;;;22.63;nan;-24445.53;5032511;28;20194;-66
2022/09/07 07:38:37;;;;;;;3.70;2.53;;;;;;;22.58;nan;-24444.03;5033957;28;20510;-66
2022/09/07 07:41:04;;;;;;;5.22;2.20;;;;;;;23.02;nan;-24456.06;5034082;28;20183;-66
2022/09/07 07:43:30;;;;;;;3.72;2.60;;;;;;;22.64;nan;-24445.81;5034684;28;20210;-65
2022/09/07 07:45:57;;;;;;;3.17;2.20;;;;;;;23.06;nan;-24457.31;5044014;28;20218;-65
2022/09/07 07:48:22;;;;;;;3.38;2.55;;;;;;;22.79;nan;-24449.84;5033660;28;20269;-65
2022/09/07 07:51:02;;;;;;;4.20;2.53;;;;;;;23.17;nan;-24460.34;5033211;28;20210;-65
2022/09/07 07:53:30;;;;;;;6.45;2.40;;;;;;;23.39;nan;-24466.13;5033326;28;20179;-66
2022/09/07 07:55:58;;;;;;;3.30;2.42;;;;;;;23.43;nan;-24467.38;5033603;28;20627;-65
2022/09/07 07:58:26;;;;;;;3.90;3.05;;;;;;;23.14;nan;-24459.38;5033588;28;20175;-65
2022/09/07 08:00:52;;;;;;;3.78;2.63;;;;;;;23.02;nan;-24456.19;5033584;28;20179;-65
2022/09/07 08:03:17;;;;;;;4.22;2.50;;;;;;;22.94;nan;-24453.84;5036095;28;20744;-65
2022/09/07 08:05:43;;;;;;;4.15;2.80;;;;;;;22.59;nan;-24444.31;5041886;28;20179;-65
2022/09/07 08:08:10;;;;;;;3.47;2.70;;;;;;;22.77;nan;-24449.41;5043195;28;20279;-65
2022/09/07 08:10:35;;;;;;;3.25;2.63;;;;;;;23.19;nan;-24460.75;5034583;28;20262;-65
2022/09/07 08:13:00;;;;;;;3.80;2.80;;;;;;;23.47;nan;-24468.34;5033742;28;20214;-67
2022/09/07 08:15:26;;;;;;;3.08;2.42;;;;;;;23.41;nan;-24466.81;5032950;28;20654;-66
2022/09/07 08:17:51;;;;;;;5.53;3.22;;;;;;;23.76;nan;-24476.50;5033070;28;20190;-65
2022/09/07 08:20:17;;;;;;;3.83;2.80;;;;;;;23.44;nan;-24467.66;5033247;28;20701;-66
2022/09/07 08:22:42;;;;;;;3.63;2.78;;;;;;;23.30;nan;-24463.94;5035577;28;20183;-66
2022/09/07 08:25:08;;;;;;;4.15;2.50;;;;;;;22.98;nan;-24454.94;5037784;28;20187;-65
2022/09/07 08:27:34;;;;;;;3.72;2.47;;;;;;;22.65;nan;-24446.09;5033039;28;20269;-66
2022/09/07 08:30:00;;;;;;;3.28;2.63;;;;;;;22.93;nan;-24453.72;5033011;28;20278;-66
2022/09/07 08:32:26;;;;;;;4.40;3.08;;;;;;;23.11;nan;-24458.69;5032578;28;20186;-66
2022/09/07 08:34:51;;;;;;;3.58;2.70;;;;;;;22.97;nan;-24454.81;5033330;28;20190;-65
2022/09/07 08:37:17;;;;;;;3.95;2.75;;;;;;;22.95;nan;-24454.13;5031499;28;20187;-66
2022/09/07 08:39:42;;;;;;;3.03;2.45;;;;;;;22.61;nan;-24445.00;5032022;28;20175;-66
2022/09/07 08:42:11;;;;;;;3.80;2.85;;;;;;;23.46;nan;-24468.22;5032345;28;20167;-66
2022/09/07 08:44:40;;;;;;;4.95;2.75;;;;;;;23.44;nan;-24467.53;5032299;28;20641;-66
2022/09/07 08:47:36;;;;;;;4.28;2.78;;;;;;;23.00;nan;-24455.50;5031244;28;20175;-66
2022/09/07 08:50:10;;;;;;;3.95;2.80;;;;;;;22.82;nan;-24450.81;5036232;28;20195;-66
2022/09/07 08:52:50;;;;;;;5.03;2.60;;;;;;;22.84;nan;-24451.34;5037617;28;20189;-66
2022/09/07 08:55:26;;;;;;;5.18;3.10;;;;;;;22.75;nan;-24448.88;5032101;28;20278;-66
2022/09/07 08:58:00;;;;;;;4.95;2.63;;;;;;;22.68;nan;-24446.94;5032148;28;20637;-65
2022/09/07 09:00:26;;;;;;;3.88;2.80;;;;;;;22.98;nan;-24454.94;5032130;28;20260;-66
2022/09/07 09:02:51;;;;;;;3.35;2.58;;;;;;;23.22;nan;-24461.56;5030693;28;20266;-65
2022/09/07 09:05:38;;;;;;;3.58;2.55;;;;;;;23.48;nan;-24468.63;5031917;28;20167;-67
2022/09/07 09:08:24;;;;;;;7.57;2.80;;;;;;;23.55;nan;-24470.69;5041828;28;20191;-66
2022/09/07 09:11:02;;;;;;;4.97;3.00;;;;;;;23.80;nan;-24477.47;5031304;28;20631;-66
2022/09/07 09:13:47;;;;;;;4.18;2.85;;;;;;;24.25;nan;-24489.75;5031811;28;20177;-66
2022/09/07 09:16:15;;;;;;;3.72;2.70;;;;;;;24.42;nan;-24494.44;5019902;28;20239;-66
2022/09/07 09:18:43;;;;;;;6.65;2.90;;;;;;;24.17;nan;-24487.53;5031606;28;20270;-66
2022/09/07 09:21:15;;;;;;;5.75;3.47;;;;;;;23.74;nan;-24475.81;5031734;28;20257;-65
2022/09/07 09:23:42;;;;;;;4.25;2.75;;;;;;;23.83;nan;-24478.16;5038135;28;20627;-65
2022/09/07 09:26:15;;;;;;;4.80;3.22;;;;;;;24.03;nan;-24483.81;5040103;28;20198;-65
2022/09/07 09:28:40;;;;;;;7.07;2.80;;;;;;;23.72;nan;-24475.38;5034095;28;20211;-65
2022/09/07 09:31:16;;;;;;;3.63;2.60;;;;;;;23.72;nan;-24475.38;5037991;28;20323;-66
2022/09/07 09:33:42;;;;;;;4.50;2.67;;;;;;;23.97;nan;-24482.16;5038167;28;20166;-65
2022/09/07 09:36:24;;;;;;;4.40;2.65;;;;;;;23.86;nan;-24478.97;5035681;28;20189;-64
2022/09/07 09:38:50;;;;;;;3.50;2.33;;;;;;;24.05;nan;-24484.22;5031129;28;20551;-65
2022/09/07 09:41:16;;;;;;;3.33;2.25;;;;;;;24.09;nan;-24485.31;5040619;28;20183;-65
2022/09/07 09:43:53;;;;;;;3.00;2.25;;;;;;;24.09;nan;-24485.47;5036384;28;20203;-65
2022/09/07 09:46:27;;;;;;;2.95;2.22;;;;;;;24.10;nan;-24485.59;5033724;28;20179;-65
2022/09/07 09:48:56;;;;;;;4.38;2.20;;;;;;;23.78;nan;-24477.03;5031146;28;20357;-64
2022/09/07 09:51:24;;;;;;;2.47;2.08;;;;;;;24.26;nan;-24490.03;5031168;28;20160;-67
2022/09/07 09:53:58;;;;;;;5.65;2.33;;;;;;;24.41;nan;-24494.16;5031219;28;20176;-64
2022/09/07 09:56:45;;;;;;;2.38;2.08;;;;;;;24.25;nan;-24489.75;5036759;28;20282;-64
2022/09/07 09:59:11;;;;;;;3.05;2.63;;;;;;;24.01;nan;-24483.25;5038720;28;20555;-66
2022/09/07 10:01:37;;;;;;;3.10;2.03;;;;;;;24.12;nan;-24486.16;5031440;28;20183;-65
2022/09/07 10:04:33;;;;;;;2.83;2.17;;;;;;;24.56;nan;-24498.16;5030860;28;20206;-65
2022/09/07 10:07:06;;;;;;;3.15;2.35;;;;;;;24.79;nan;-24504.47;5012558;28;20218;-66
2022/09/07 10:09:49;;;;;;;3.08;2.28;;;;;;;25.15;nan;-24514.13;5031029;28;20179;-65
2022/09/07 10:12:34;;;;;;;2.92;2.13;;;;;;;25.18;nan;-24514.94;5031152;28;20156;-66
2022/09/07 10:15:03;;;;;;;2.80;2.13;;;;;;;25.06;nan;-24511.91;5029865;28;20341;-65
2022/09/07 10:17:46;;;;;;;2.92;2.22;;;;;;;24.56;nan;-24498.16;5031081;28;20282;-67
2022/09/07 10:20:11;;;;;;;4.63;2.58;;;;;;;24.67;nan;-24501.03;5030598;28;20302;-66
2022/09/07 10:22:37;;;;;;;3.70;2.35;;;;;;;24.60;nan;-24499.38;5031229;28;20282;-65
2022/09/07 10:25:35;;;;;;;3.25;2.08;;;;;;;24.45;nan;-24495.25;5029349;28;20210;-65
2022/09/07 10:28:13;;;;;;;3.22;2.00;;;;;;;24.31;nan;-24491.25;5030895;28;20179;-66
2022/09/07 10:30:41;;;;;;;4.43;2.00;;;;;;;24.29;nan;-24490.84;5030943;28;20660;-66
2022/09/07 10:33:17;;;;;;;3.10;2.20;;;;;;;24.65;nan;-24500.63;5031398;28;20262;-65
2022/09/07 10:35:58;;;;;;;3.88;2.53;;;;;;;25.16;nan;-24514.41;5031096;28;20665;-66
2022/09/07 10:38:30;;;;;;;3.38;2.15;;;;;;;25.15;nan;-24514.28;5033490;28;20232;-67
2022/09/07 10:41:04;;;;;;;3.25;2.38;;;;;;;25.12;nan;-24513.44;5039718;28;20179;-65
2022/09/07 10:43:39;;;;;;;4.72;2.90;;;;;;;25.48;nan;-24523.22;5034439;28;20198;-65
2022/09/07 10:46:18;;;;;;;3.50;2.67;;;;;;;25.40;nan;-24521.16;5027528;28;20177;-66
2022/09/07 10:49:02;;;;;;;4.30;2.72;;;;;;;25.22;nan;-24516.19;5036887;28;20286;-66
2022/09/07 10:51:55;;;;;;;3.45;2.47;;;;;;;25.26;nan;-24517.28;5045372;28;20202;-66
2022/09/07 10:54:47;;;;;;;2.88;2.22;;;;;;;25.10;nan;-24512.75;5040131;28;20236;-66
2022/09/07 10:57:12;;;;;;;2.65;2.13;;;;;;;25.49;nan;-24523.63;5032629;28;20263;-66
2022/09/07 11:00:18;;;;;;;3.05;2.38;;;;;;;25.65;nan;-24527.75;5039765;28;20266;-66
2022/09/07 11:03:02;;;;;;;2.08;1.80;;;;;;;25.70;nan;-24529.13;5031670;28;20584;-66
2022/09/07 11:05:30;;;;;;;3.10;2.22;;;;;;;25.78;nan;-24531.47;5033038;28;20187;-65
2022/09/07 11:08:20;;;;;;;3.47;2.42;;;;;;;25.44;nan;-24522.25;5044543;28;20201;-66
2022/09/07 11:11:10;;;;;;;3.45;2.50;;;;;;;25.11;nan;-24513.16;5038603;28;20183;-66
2022/09/07 11:13:41;;;;;;;3.22;2.20;;;;;;;25.24;nan;-24516.59;5041669;28;20187;-66
2022/09/07 11:16:20;;;;;;;3.20;2.28;;;;;;;25.34;nan;-24519.50;5039889;28;20249;-65
2022/09/07 11:18:57;;;;;;;4.78;1.92;;;;;;;25.72;nan;-24529.81;5035326;28;20207;-66
2022/09/07 11:21:27;;;;;;;2.63;1.92;;;;;;;25.67;nan;-24528.44;5028736;28;20230;-66
2022/09/07 11:24:08;;;;;;;3.22;2.30;;;;;;;25.39;nan;-24520.88;5042723;28;20214;-66
2022/09/07 11:26:45;;;;;;;3.63;2.10;;;;;;;25.83;nan;-24532.69;5042277;28;20183;-66
2022/09/07 11:29:24;;;;;;;2.60;2.20;;;;;;;26.10;nan;-24539.97;5034316;28;20248;-66
2022/09/07 11:32:06;;;;;;;6.13;2.05;;;;;;;26.26;nan;-24544.38;5033846;28;20209;-66
2022/09/07 11:34:45;;;;;;;4.82;2.22;;;;;;;25.79;nan;-24531.75;5034010;28;20245;-67
2022/09/07 11:37:40;;;;;;;3.03;2.03;;;;;;;26.02;nan;-24537.94;5033913;28;20250;-67
2022/09/07 11:40:26;;;;;;;2.95;2.00;;;;;;;25.53;nan;-24524.59;5033525;28;20167;-67
2022/09/07 11:43:09;;;;;;;3.42;2.10;;;;;;;25.42;nan;-24521.56;5044060;28;20191;-66
2022/09/07 11:45:44;;;;;;;6.07;2.42;;;;;;;25.44;nan;-24522.25;5018568;28;20187;-66
2022/09/07 11:48:18;;;;;;;2.63;1.77;;;;;;;25.35;nan;-24519.63;5033294;28;20265;-66
2022/09/07 11:50:50;;;;;;;3.60;2.03;;;;;;;25.24;nan;-24516.59;5033986;28;20179;-65
2022/09/07 11:53:29;;;;;;;2.75;1.90;;;;;;;25.60;nan;-24526.38;5033358;28;20163;-68
2022/09/07 11:55:59;;;;;;;1.90;1.75;;;;;;;25.79;nan;-24531.59;5038508;28;20187;-66
2022/09/07 11:59:02;;;;;;;2.58;1.85;;;;;;;26.22;nan;-24543.28;5043031;28;20300;-66
2022/09/07 12:01:48;;;;;;;2.50;1.88;;;;;;;26.59;nan;-24553.31;5039614;28;20669;-66